Time;durP1;ratioP1;P1;durP2;ratioP2;P2;SDS_P1;SDS_P2;PMS_P1;PMS_P2;Temp;Humidity;BMP_temperature;BMP_pressure;BME280_temperature;BME280_humidity;BME280_pressure;Samples;Min_cycle;Max_cycle;Signal;HPM_P1;HPM_P2
2021/10/07 00:01:57;;;;;;;31.93;6.80;;;14.20;93.90;;;;;;4962489;28;20429;-89
2021/10/07 00:04:22;;;;;;;32.73;8.33;;;14.20;93.90;;;;;;4995517;28;20445;-89
2021/10/07 00:06:48;;;;;;;31.23;8.80;;;14.20;93.80;;;;;;4988582;28;20183;-89
2021/10/07 00:09:14;;;;;;;27.00;8.10;;;14.20;93.70;;;;;;4959497;28;20194;-89
2021/10/07 00:11:42;;;;;;;23.93;7.90;;;14.10;93.70;;;;;;4975722;28;20840;-89
2021/10/07 00:14:08;;;;;;;20.90;8.05;;;14.10;93.60;;;;;;4965506;28;20882;-89
2021/10/07 00:16:34;;;;;;;26.45;10.65;;;14.10;93.60;;;;;;4939265;29;20644;-89
2021/10/07 00:19:00;;;;;;;19.70;6.13;;;14.10;93.60;;;;;;4956704;29;20181;-89
2021/10/07 00:21:26;;;;;;;21.30;7.45;;;14.00;93.40;;;;;;4968998;28;20553;-89
2021/10/07 00:26:18;;;;;;;34.67;8.37;;;14.00;93.60;;;;;;4976402;28;20282;-89
2021/10/07 00:28:43;;;;;;;24.50;9.03;;;13.90;93.60;;;;;;4976412;28;20206;-89
2021/10/07 00:31:16;;;;;;;24.97;8.57;;;14.00;93.60;;;;;;4958618;28;20183;-89
2021/10/07 00:34:37;;;;;;;25.08;8.85;;;13.90;93.60;;;;;;4959149;28;20447;-89
2021/10/07 00:39:04;;;;;;;21.92;8.27;;;14.00;93.30;;;;;;4975884;28;20523;-89
2021/10/07 00:41:31;;;;;;;14.30;7.22;;;14.00;93.20;;;;;;4958474;28;20192;-89
2021/10/07 00:44:04;;;;;;;28.00;8.43;;;14.00;93.20;;;;;;4958792;28;20282;-89
2021/10/07 00:46:30;;;;;;;18.13;7.13;;;14.00;93.10;;;;;;4970893;28;20244;-89
2021/10/07 00:48:56;;;;;;;27.88;7.28;;;14.00;92.90;;;;;;4980476;28;20192;-89
2021/10/07 00:51:21;;;;;;;25.63;9.00;;;13.90;92.90;;;;;;4979721;28;20243;-88
2021/10/07 00:53:47;;;;;;;40.07;9.73;;;14.00;92.90;;;;;;4962821;28;20208;-88
2021/10/07 00:56:18;;;;;;;32.43;10.70;;;14.00;92.90;;;;;;4963822;28;20271;-89
2021/10/07 00:58:45;;;;;;;36.67;10.40;;;14.00;92.80;;;;;;4959003;28;20442;-89
2021/10/07 01:01:11;;;;;;;29.15;9.40;;;14.00;92.80;;;;;;4942413;28;20211;-89
2021/10/07 01:03:36;;;;;;;41.87;10.20;;;14.10;92.90;;;;;;4957910;28;20539;-88
2021/10/07 01:06:02;;;;;;;43.57;9.00;;;14.10;92.70;;;;;;4959497;28;20258;-89
2021/10/07 01:08:28;;;;;;;29.70;7.60;;;14.00;92.30;;;;;;4958776;28;20628;-89
2021/10/07 01:10:54;;;;;;;24.45;10.20;;;13.90;92.20;;;;;;4961348;28;20407;-90
2021/10/07 01:13:20;;;;;;;34.40;10.80;;;13.90;92.30;;;;;;4959009;28;20246;-89
2021/10/07 01:15:45;;;;;;;21.23;7.47;;;13.90;92.30;;;;;;4947894;29;20185;-89
2021/10/07 01:18:12;;;;;;;25.87;7.90;;;13.90;92.30;;;;;;4939285;29;20183;-89
2021/10/07 01:20:38;;;;;;;22.40;9.13;;;14.00;92.30;;;;;;4939167;29;20571;-89
2021/10/07 01:23:04;;;;;;;23.53;10.37;;;14.00;92.30;;;;;;4938536;29;20356;-89
2021/10/07 01:25:34;;;;;;;27.95;9.40;;;14.10;92.30;;;;;;4958380;28;20420;-89
2021/10/07 01:28:00;;;;;;;25.33;7.72;;;14.10;92.10;;;;;;4938927;29;20190;-89
2021/10/07 01:30:26;;;;;;;26.13;8.85;;;14.10;92.00;;;;;;4939650;29;20262;-89
2021/10/07 01:32:56;;;;;;;41.78;10.40;;;14.20;91.90;;;;;;4940821;29;20223;-89
2021/10/07 01:35:23;;;;;;;31.80;8.82;;;14.20;91.60;;;;;;4945087;28;20658;-89
2021/10/07 01:37:48;;;;;;;38.65;8.40;;;14.20;91.40;;;;;;4960843;28;20747;-89
2021/10/07 01:40:14;;;;;;;22.63;7.97;;;14.10;91.00;;;;;;4942933;29;20248;-89
2021/10/07 01:42:42;;;;;;;22.70;7.07;;;14.00;90.60;;;;;;4972898;29;20431;-89
2021/10/07 01:45:12;;;;;;;26.35;7.93;;;14.00;90.20;;;;;;4960248;29;20185;-88
2021/10/07 01:47:38;;;;;;;19.27;7.18;;;14.10;89.90;;;;;;4944700;29;20188;-88
2021/10/07 01:50:06;;;;;;;15.23;7.38;;;14.10;89.60;;;;;;4975895;28;20202;-89
2021/10/07 01:52:32;;;;;;;20.67;6.68;;;14.20;89.60;;;;;;4979534;28;20206;-89
2021/10/07 01:54:58;;;;;;;19.27;8.30;;;14.10;89.70;;;;;;4961148;28;20628;-89
2021/10/07 01:57:23;;;;;;;17.93;7.70;;;14.20;89.80;;;;;;4959178;28;20436;-90
2021/10/07 01:59:49;;;;;;;26.80;7.20;;;14.20;89.90;;;;;;4957370;28;20223;-89
2021/10/07 02:02:15;;;;;;;18.40;7.00;;;14.30;90.00;;;;;;4957123;28;20186;-89
2021/10/07 02:04:41;;;;;;;13.40;5.97;;;14.30;90.00;;;;;;4945069;28;20275;-89
2021/10/07 02:07:06;;;;;;;16.50;5.97;;;14.40;89.80;;;;;;4955561;28;20199;-89
2021/10/07 02:09:32;;;;;;;18.90;6.97;;;14.40;89.70;;;;;;4939389;29;20227;-89
2021/10/07 02:11:58;;;;;;;20.23;6.97;;;14.30;89.70;;;;;;4937638;29;20240;-89
2021/10/07 02:14:24;;;;;;;13.10;5.23;;;14.30;89.60;;;;;;4937901;29;20471;-89
2021/10/07 02:16:51;;;;;;;18.23;6.28;;;14.20;89.50;;;;;;4940725;29;20424;-89
2021/10/07 02:19:17;;;;;;;16.65;6.20;;;14.20;89.40;;;;;;4938433;29;20283;-89
2021/10/07 02:21:44;;;;;;;13.87;5.53;;;14.20;89.40;;;;;;4937840;29;20223;-89
2021/10/07 02:24:11;;;;;;;11.45;5.03;;;14.30;89.60;;;;;;4938641;29;20443;-88
2021/10/07 02:26:37;;;;;;;17.40;4.80;;;14.30;89.60;;;;;;4938108;29;20315;-89
2021/10/07 02:29:04;;;;;;;9.77;4.90;;;14.20;89.50;;;;;;4939022;29;20187;-89
2021/10/07 02:31:29;;;;;;;6.75;4.30;;;14.30;89.60;;;;;;4937807;29;20668;-89
2021/10/07 02:33:55;;;;;;;16.83;5.20;;;14.30;89.60;;;;;;4937818;29;20212;-89
2021/10/07 02:36:22;;;;;;;18.83;4.83;;;14.30;89.60;;;;;;4964124;28;20239;-89
2021/10/07 02:38:48;;;;;;;16.58;4.80;;;14.20;89.40;;;;;;4960430;28;20911;-89
2021/10/07 02:41:15;;;;;;;13.75;5.32;;;14.20;89.40;;;;;;4959737;28;20191;-89
2021/10/07 02:43:41;;;;;;;19.80;4.05;;;14.20;89.40;;;;;;4960714;28;20250;-89
2021/10/07 02:46:07;;;;;;;8.18;3.58;;;14.20;89.30;;;;;;4960591;28;20187;-89
2021/10/07 02:48:33;;;;;;;15.80;5.93;;;14.30;89.40;;;;;;4960746;28;20640;-89
2021/10/07 02:50:58;;;;;;;13.30;4.73;;;14.20;89.20;;;;;;4960632;28;20422;-89
2021/10/07 02:53:27;;;;;;;8.57;4.47;;;14.20;90.00;;;;;;4960153;28;20211;-89
2021/10/07 02:55:53;;;;;;;11.32;4.95;;;14.20;89.20;;;;;;4978231;28;20976;-89
2021/10/07 02:58:19;;;;;;;14.02;5.07;;;14.20;89.20;;;;;;4960292;28;20176;-89
2021/10/07 03:00:44;;;;;;;15.00;4.90;;;14.20;89.20;;;;;;4976848;28;20638;-89
2021/10/07 03:03:11;;;;;;;14.17;4.60;;;14.20;89.20;;;;;;4979748;28;20254;-89
2021/10/07 03:05:37;;;;;;;17.02;5.25;;;14.20;89.10;;;;;;4966113;28;20190;-89
2021/10/07 03:08:03;;;;;;;14.30;5.10;;;14.10;89.20;;;;;;4979806;28;20176;-89
2021/10/07 03:10:29;;;;;;;16.90;4.87;;;14.20;89.10;;;;;;4960116;28;20195;-89
2021/10/07 03:12:55;;;;;;;11.80;5.40;;;14.10;89.10;;;;;;4960203;28;20471;-89
2021/10/07 03:15:21;;;;;;;11.50;5.33;;;14.10;89.10;;;;;;4962645;28;20314;-89
2021/10/07 03:17:46;;;;;;;9.20;4.90;;;14.00;89.00;;;;;;4959929;28;20550;-88
2021/10/07 03:20:12;;;;;;;7.53;5.23;;;14.00;89.10;;;;;;4962867;28;20180;-89
2021/10/07 03:22:40;;;;;;;21.23;6.93;;;14.00;89.10;;;;;;4959812;28;20231;-88
2021/10/07 03:25:06;;;;;;;10.18;4.90;;;13.80;89.10;;;;;;4958414;28;20927;-89
2021/10/07 03:27:32;;;;;;;19.23;5.25;;;13.90;89.10;;;;;;4955053;28;20187;-88
2021/10/07 03:29:58;;;;;;;17.83;6.13;;;13.80;89.00;;;;;;4959897;28;20186;-88
2021/10/07 03:32:23;;;;;;;22.00;7.03;;;13.80;89.20;;;;;;4959239;28;20207;-88
2021/10/07 03:34:49;;;;;;;15.40;8.47;;;13.80;89.30;;;;;;4960364;28;20191;-88
2021/10/07 03:37:15;;;;;;;17.43;6.50;;;13.80;89.30;;;;;;4959997;28;20203;-88
2021/10/07 03:39:41;;;;;;;17.58;5.93;;;13.70;89.40;;;;;;4977947;28;20171;-88
2021/10/07 03:42:06;;;;;;;18.33;6.50;;;13.70;89.70;;;;;;4976316;28;20186;-87
2021/10/07 03:44:32;;;;;;;19.07;6.77;;;13.70;89.90;;;;;;4959555;28;20206;-89
2021/10/07 03:46:58;;;;;;;11.53;7.33;;;13.70;90.10;;;;;;4959496;28;20195;-89
2021/10/07 03:49:24;;;;;;;14.73;6.30;;;13.60;90.20;;;;;;4958348;28;20459;-89
2021/10/07 03:51:50;;;;;;;22.20;7.60;;;13.60;90.20;;;;;;4959442;28;20239;-89
2021/10/07 03:54:15;;;;;;;20.87;7.50;;;13.70;90.40;;;;;;4960100;28;20466;-89
2021/10/07 03:56:41;;;;;;;12.47;8.17;;;13.60;90.20;;;;;;4959024;28;20547;-89
2021/10/07 03:59:07;;;;;;;16.40;7.37;;;13.70;90.10;;;;;;4961352;28;20778;-88
2021/10/07 04:01:33;;;;;;;23.47;8.60;;;13.60;89.90;;;;;;4958731;28;20190;-88
2021/10/07 04:03:59;;;;;;;18.73;9.03;;;13.60;89.90;;;;;;4958713;28;20196;-88
2021/10/07 04:06:25;;;;;;;16.60;7.90;;;13.50;90.00;;;;;;4974072;28;20422;-89
2021/10/07 04:08:50;;;;;;;26.40;8.10;;;13.50;90.10;;;;;;4958226;28;20996;-88
2021/10/07 04:11:16;;;;;;;18.10;7.97;;;13.60;89.90;;;;;;4959674;28;20411;-89
2021/10/07 04:13:42;;;;;;;24.67;9.00;;;13.40;89.60;;;;;;4976732;28;20262;-89
2021/10/07 04:16:07;;;;;;;22.30;8.70;;;13.40;89.80;;;;;;4958934;28;20700;-88
2021/10/07 04:18:33;;;;;;;27.40;9.50;;;13.30;89.90;;;;;;4961000;28;20175;-89
2021/10/07 04:20:59;;;;;;;22.47;8.73;;;13.20;89.90;;;;;;4958709;28;20176;-89
2021/10/07 04:23:25;;;;;;;20.13;9.20;;;13.20;90.10;;;;;;4975661;28;20730;-88
2021/10/07 04:25:50;;;;;;;26.87;10.47;;;13.10;90.40;;;;;;4961490;28;20592;-88
2021/10/07 04:28:16;;;;;;;25.50;8.40;;;13.10;90.50;;;;;;4959988;28;20504;-88
2021/10/07 04:30:42;;;;;;;18.23;9.33;;;13.10;90.70;;;;;;4961138;28;20176;-89
2021/10/07 04:33:11;;;;;;;23.60;9.73;;;13.00;90.60;;;;;;4958163;28;20207;-89
2021/10/07 04:35:38;;;;;;;16.27;9.63;;;13.00;90.70;;;;;;4958804;28;20231;-89
2021/10/07 04:38:05;;;;;;;24.13;11.40;;;13.00;90.90;;;;;;4959839;28;20342;-89
2021/10/07 04:40:31;;;;;;;24.52;12.90;;;13.00;91.00;;;;;;4958461;28;20176;-89
2021/10/07 04:42:57;;;;;;;18.37;9.80;;;12.90;91.10;;;;;;4958217;28;20697;-89
2021/10/07 04:45:23;;;;;;;29.88;11.10;;;12.90;91.10;;;;;;4959519;28;20419;-88
2021/10/07 04:47:49;;;;;;;19.77;10.03;;;12.80;91.10;;;;;;4957973;28;20259;-89
2021/10/07 04:50:15;;;;;;;22.90;9.33;;;12.80;91.20;;;;;;4960606;28;20792;-88
2021/10/07 04:52:41;;;;;;;27.85;12.25;;;12.80;91.30;;;;;;4959029;28;20518;-89
2021/10/07 04:55:08;;;;;;;29.53;11.80;;;12.80;92.10;;;;;;4960731;28;20206;-88
2021/10/07 04:57:34;;;;;;;26.67;11.60;;;12.70;91.40;;;;;;4959188;28;20184;-89
2021/10/07 05:00:00;;;;;;;22.50;10.25;;;12.70;91.40;;;;;;4954628;28;20184;-90
2021/10/07 05:02:26;;;;;;;21.98;11.13;;;12.70;91.40;;;;;;4958291;28;20544;-90
2021/10/07 05:04:52;;;;;;;29.40;10.30;;;12.70;91.40;;;;;;4959398;28;20190;-90
2021/10/07 05:07:18;;;;;;;17.80;10.80;;;12.70;91.40;;;;;;4958381;28;20180;-90
2021/10/07 05:09:43;;;;;;;21.53;10.73;;;12.70;91.30;;;;;;4976095;28;20535;-90
2021/10/07 05:12:09;;;;;;;28.40;11.07;;;12.60;91.10;;;;;;4975457;28;20540;-90
2021/10/07 05:14:36;;;;;;;33.37;10.10;;;12.60;91.10;;;;;;4957700;28;20207;-90
2021/10/07 05:17:02;;;;;;;25.85;11.32;;;12.60;91.00;;;;;;4976129;28;20407;-90
2021/10/07 05:19:28;;;;;;;15.90;10.38;;;12.60;91.00;;;;;;4958616;28;20333;-90
2021/10/07 05:21:54;;;;;;;18.05;10.02;;;12.60;91.10;;;;;;4958813;28;20621;-90
2021/10/07 05:24:20;;;;;;;24.97;11.63;;;12.50;91.20;;;;;;4958668;28;20239;-90
2021/10/07 05:26:46;;;;;;;22.20;11.40;;;12.50;91.30;;;;;;4958045;28;20482;-89
2021/10/07 05:29:11;;;;;;;25.30;10.10;;;12.50;91.20;;;;;;4958618;28;20187;-91
2021/10/07 05:31:37;;;;;;;26.03;11.93;;;12.50;91.20;;;;;;4959197;28;20940;-90
2021/10/07 05:34:03;;;;;;;24.33;13.23;;;12.50;91.20;;;;;;4959051;28;20593;-91
2021/10/07 05:36:29;;;;;;;35.93;13.23;;;12.50;91.20;;;;;;4963829;28;20427;-90
2021/10/07 05:39:09;;;;;;;25.15;10.55;;;12.50;91.10;;;;;;4994979;28;20167;-92
2021/10/07 05:41:39;;;;;;;23.83;11.95;;;12.50;91.20;;;;;;4972631;28;20172;-94
2021/10/07 05:44:10;;;;;;;25.05;11.32;;;12.50;91.00;;;;;;4960977;28;20215;-93
2021/10/07 05:46:41;;;;;;;32.15;12.18;;;12.60;91.00;;;;;;4961988;28;20179;-93
2021/10/07 05:49:13;;;;;;;25.92;11.57;;;12.60;90.90;;;;;;4962057;28;20192;-92
2021/10/07 05:51:50;;;;;;;29.83;11.68;;;12.60;90.80;;;;;;4961386;28;20231;-93
2021/10/07 05:54:22;;;;;;;25.45;12.40;;;12.60;90.50;;;;;;4961966;28;20192;-92
2021/10/07 05:57:05;;;;;;;21.83;10.85;;;12.60;90.40;;;;;;4995228;28;20179;-92
2021/10/07 05:59:43;;;;;;;34.80;12.18;;;12.60;90.40;;;;;;4980691;28;20231;-95
2021/10/07 06:02:12;;;;;;;26.77;10.60;;;12.60;90.20;;;;;;4978449;28;20172;-93
2021/10/07 06:04:38;;;;;;;27.98;11.20;;;12.60;90.10;;;;;;4962104;28;20624;-93
2021/10/07 06:07:04;;;;;;;30.47;12.47;;;12.60;90.00;;;;;;4942689;29;20284;-93
2021/10/07 06:09:57;;;;;;;30.02;11.00;;;12.70;89.90;;;;;;4941113;29;20942;-94
2021/10/07 06:12:55;;;;;;;18.65;9.77;;;12.70;89.70;;;;;;4944702;29;20270;-93
2021/10/07 06:15:28;;;;;;;21.48;11.60;;;12.80;89.50;;;;;;4945159;29;20685;-93
2021/10/07 06:18:20;;;;;;;24.70;12.15;;;12.80;89.30;;;;;;4949094;28;20650;-92
2021/10/07 06:21:48;;;;;;;;;;;;;;;;;;;;;
2021/10/07 06:24:57;;;;;;;20.55;11.40;;;12.60;88.80;;;;;;4941755;29;20299;-93
2021/10/07 06:27:23;;;;;;;20.38;11.68;;;12.50;89.20;;;;;;4921400;29;20193;-92
2021/10/07 06:30:03;;;;;;;22.48;13.02;;;12.80;90.00;;;;;;4953764;29;20185;-93
2021/10/07 06:32:32;;;;;;;20.10;11.23;;;12.80;89.20;;;;;;4938543;29;20220;-94
2021/10/07 06:35:05;;;;;;;31.15;13.35;;;12.80;89.00;;;;;;4945634;29;20700;-93
2021/10/07 06:37:36;;;;;;;27.23;14.75;;;13.00;89.00;;;;;;4933193;29;20649;-94
2021/10/07 06:43:03;;;;;;;27.98;13.95;;;13.00;88.50;;;;;;4921043;29;20702;-93
2021/10/07 06:45:29;;;;;;;36.38;12.90;;;13.10;88.60;;;;;;4906631;29;20198;-93
2021/10/07 06:47:56;;;;;;;34.05;13.10;;;13.30;88.30;;;;;;4905653;29;20189;-94
2021/10/07 06:50:27;;;;;;;22.25;12.55;;;13.40;87.20;;;;;;4921590;29;20182;-93
2021/10/07 06:52:53;;;;;;;25.80;13.38;;;13.30;86.80;;;;;;4919257;29;20225;-94
2021/10/07 06:55:21;;;;;;;23.50;12.53;;;13.30;87.00;;;;;;4942116;29;20200;-94
2021/10/07 06:57:47;;;;;;;20.15;12.32;;;13.20;87.00;;;;;;4950845;29;20216;-93
2021/10/07 07:00:13;;;;;;;29.77;12.45;;;13.20;87.20;;;;;;4975163;28;20315;-94
2021/10/07 07:02:40;;;;;;;36.33;12.43;;;13.20;87.30;;;;;;4959114;28;20702;-94
2021/10/07 07:05:09;;;;;;;22.23;12.18;;;13.20;87.60;;;;;;4967145;28;20191;-95
2021/10/07 07:07:35;;;;;;;26.75;13.63;;;13.10;87.90;;;;;;4966230;28;20183;-94
2021/10/07 07:10:02;;;;;;;26.50;13.43;;;13.10;88.10;;;;;;4965806;28;20272;-94
2021/10/07 07:13:00;;;;;;;31.45;13.90;;;13.20;88.20;;;;;;4964734;28;20195;-94
2021/10/07 07:15:54;;;;;;;22.42;12.85;;;13.20;88.40;;;;;;4976211;28;20193;-94
2021/10/07 07:18:23;;;;;;;39.22;14.50;;;13.20;88.50;;;;;;5004278;28;20190;-94
2021/10/07 07:20:51;;;;;;;21.30;13.82;;;13.30;88.70;;;;;;5003279;28;20167;-95
2021/10/07 07:23:20;;;;;;;27.88;13.00;;;13.40;88.80;;;;;;5002981;28;20203;-96
2021/10/07 08:04:17;;;;;;;;;;;;;;;;;;;;;
2021/10/07 08:07:47;;;;;;;;;;;;;;;;;;;;;
2021/10/07 08:11:04;;;;;;;18.42;13.82;;;14.00;87.50;;;;;;4952760;28;20184;-96
2021/10/07 08:30:24;;;;;;;16.70;11.50;;;14.30;86.90;;;;;;4999526;28;20179;-94
2021/10/07 08:36:06;;;;;;;;;;;;;;;;;;;;;
2021/10/07 09:35:50;;;;;;;16.52;8.85;;;17.60;75.90;;;;;;4993941;28;20215;-96
2021/10/07 09:38:23;;;;;;;9.98;8.65;;;17.80;75.80;;;;;;4975636;28;20188;-96
2021/10/07 09:40:49;;;;;;;12.18;7.22;;;17.90;75.60;;;;;;4992121;28;20179;-96
2021/10/07 09:53:37;;;;;;;14.90;8.95;;;17.30;73.50;;;;;;5073893;23;20238;-95
2021/10/07 09:56:06;;;;;;;18.70;9.63;;;17.10;73.80;;;;;;5164266;23;20216;-96
2021/10/07 09:58:42;;;;;;;14.43;8.65;;;17.10;74.30;;;;;;4984504;28;20445;-94
2021/10/07 10:01:09;;;;;;;20.45;9.65;;;17.10;74.40;;;;;;4984700;28;20179;-96
2021/10/07 10:03:35;;;;;;;17.55;9.50;;;16.80;74.30;;;;;;4983787;28;20200;-95
2021/10/07 10:06:07;;;;;;;17.13;8.70;;;16.90;74.50;;;;;;4984077;28;20179;-95
2021/10/07 10:08:50;;;;;;;23.08;9.60;;;17.20;74.00;;;;;;4967239;28;20449;-96
2021/10/07 10:11:50;;;;;;;27.42;8.60;;;17.50;72.30;;;;;;4982245;28;20200;-96
2021/10/07 10:15:52;;;;;;;;;;;;;;;;;;;;;
2021/10/07 10:18:28;;;;;;;11.35;7.60;;;18.00;72.50;;;;;;4928757;28;20240;-96
2021/10/07 10:22:26;;;;;;;;;;;;;;;;;;;;;
2021/10/07 10:28:45;;;;;;;15.63;8.20;;;18.30;69.80;;;;;;4901785;29;20197;-95
2021/10/07 10:31:34;;;;;;;14.00;6.82;;;18.70;70.30;;;;;;4900033;29;20195;-93
2021/10/07 10:34:45;;;;;;;15.02;7.97;;;18.90;70.50;;;;;;4894861;29;20223;-93
2021/10/07 10:37:32;;;;;;;14.20;7.35;;;19.20;70.20;;;;;;4858769;29;20227;-94
2021/10/07 10:40:23;;;;;;;12.55;7.45;;;19.10;68.10;;;;;;4938993;29;20261;-95
2021/10/07 10:43:18;;;;;;;16.00;8.18;;;19.10;65.70;;;;;;4967477;28;20219;-94
2021/10/07 10:46:19;;;;;;;9.07;8.10;;;19.00;63.70;;;;;;4956471;29;20331;-95
2021/10/07 10:48:49;;;;;;;16.15;8.68;;;19.10;64.00;;;;;;4955717;29;20247;-95
2021/10/07 10:51:19;;;;;;;21.60;8.60;;;19.20;64.50;;;;;;4976996;29;20184;-95
2021/10/07 10:53:58;;;;;;;8.55;6.75;;;19.20;63.30;;;;;;4959797;29;20263;-95
2021/10/07 10:56:24;;;;;;;9.57;6.82;;;19.30;62.70;;;;;;4964030;28;20184;-96
2021/10/07 10:58:54;;;;;;;9.18;6.43;;;19.20;62.60;;;;;;4963990;28;20188;-96
2021/10/07 11:01:20;;;;;;;16.60;7.00;;;19.20;63.20;;;;;;4963717;28;20199;-93
2021/10/07 11:03:46;;;;;;;18.03;8.67;;;19.10;64.10;;;;;;4965966;29;20298;-94
2021/10/07 11:07:09;;;;;;;11.55;8.85;;;19.00;64.60;;;;;;4963433;29;20209;-93
2021/10/07 11:10:02;;;;;;;12.35;7.40;;;18.80;64.50;;;;;;4903343;29;20179;-94
2021/10/07 11:12:57;;;;;;;11.23;6.28;;;18.30;65.10;;;;;;4898201;29;20265;-94
2021/10/07 11:15:26;;;;;;;13.73;6.03;;;18.20;66.30;;;;;;4905897;29;20187;-94
2021/10/07 11:17:53;;;;;;;11.38;4.93;;;18.00;66.40;;;;;;4962408;28;20228;-93
2021/10/07 11:20:30;;;;;;;7.95;4.28;;;17.90;66.70;;;;;;4971313;28;20180;-93
2021/10/07 11:23:13;;;;;;;8.52;5.30;;;17.90;67.10;;;;;;4982608;28;20179;-93
2021/10/07 11:25:46;;;;;;;9.48;5.35;;;17.90;67.60;;;;;;4981795;28;20207;-95
2021/10/07 11:28:12;;;;;;;8.38;4.57;;;18.00;67.20;;;;;;4979978;28;20164;-95
2021/10/07 11:30:40;;;;;;;17.63;5.33;;;18.10;67.90;;;;;;4980561;28;20213;-94
2021/10/07 11:33:07;;;;;;;8.02;4.78;;;18.30;67.70;;;;;;4979675;28;20498;-95
2021/10/07 11:35:34;;;;;;;17.85;6.80;;;18.40;68.00;;;;;;4978929;28;20192;-95
2021/10/07 11:38:04;;;;;;;5.70;4.93;;;18.60;66.90;;;;;;4979687;28;20187;-94
2021/10/07 11:41:14;;;;;;;9.63;5.40;;;18.80;65.50;;;;;;4978095;28;20210;-95
2021/10/07 11:43:42;;;;;;;5.43;5.03;;;18.80;64.60;;;;;;4975565;28;20207;-94
2021/10/07 11:46:14;;;;;;;6.28;5.68;;;18.80;65.10;;;;;;4978973;28;20276;-95
2021/10/07 11:48:44;;;;;;;7.25;5.35;;;18.90;66.10;;;;;;4963459;28;20192;-94
2021/10/07 11:51:10;;;;;;;13.60;7.00;;;19.10;66.70;;;;;;4997227;28;20168;-95
2021/10/07 11:53:45;;;;;;;13.55;7.70;;;19.30;67.00;;;;;;4979544;28;20354;-95
2021/10/07 11:56:24;;;;;;;12.35;7.88;;;19.40;66.90;;;;;;4979354;28;20274;-94
2021/10/07 11:59:00;;;;;;;11.65;7.22;;;19.50;66.80;;;;;;4979480;28;20184;-94
2021/10/07 12:01:31;;;;;;;13.68;7.90;;;19.50;66.20;;;;;;4978175;28;20184;-94
2021/10/07 12:03:59;;;;;;;10.50;8.00;;;19.60;65.40;;;;;;4981205;28;20187;-94
2021/10/07 12:06:26;;;;;;;18.08;10.02;;;19.60;64.60;;;;;;4980947;28;20175;-93
2021/10/07 12:08:52;;;;;;;12.48;9.20;;;19.60;64.80;;;;;;4964887;28;20183;-95
2021/10/07 12:11:24;;;;;;;12.67;10.17;;;19.50;64.80;;;;;;4980569;28;20179;-94
2021/10/07 12:13:56;;;;;;;12.63;9.20;;;19.60;64.80;;;;;;4981051;28;20471;-95
2021/10/07 12:16:31;;;;;;;12.10;8.65;;;19.60;65.30;;;;;;4981875;28;20479;-95
2021/10/07 12:19:12;;;;;;;14.65;9.68;;;19.60;64.50;;;;;;4981480;28;20234;-95
2021/10/07 12:21:55;;;;;;;17.52;9.98;;;19.30;64.30;;;;;;4981000;28;20164;-95
2021/10/07 12:24:24;;;;;;;16.48;10.15;;;19.50;64.00;;;;;;4980672;28;20191;-95
2021/10/07 12:26:53;;;;;;;14.38;10.02;;;19.50;63.60;;;;;;4981694;28;20174;-95
2021/10/07 12:29:21;;;;;;;16.70;8.85;;;19.60;64.20;;;;;;4981521;28;20196;-95
2021/10/07 12:32:02;;;;;;;18.08;8.30;;;19.70;63.90;;;;;;4981563;28;20196;-94
2021/10/07 12:34:29;;;;;;;7.50;5.57;;;19.70;64.00;;;;;;4967251;28;20199;-95
2021/10/07 12:37:19;;;;;;;6.75;6.07;;;19.80;64.20;;;;;;4981766;28;20184;-95
2021/10/07 12:39:48;;;;;;;6.72;5.90;;;19.80;63.80;;;;;;4982373;28;20152;-96
2021/10/07 12:42:19;;;;;;;9.65;4.72;;;19.60;63.70;;;;;;4982468;28;20172;-94
2021/10/07 12:44:50;;;;;;;5.05;4.43;;;19.50;63.70;;;;;;4982106;28;20180;-95
2021/10/07 12:47:18;;;;;;;7.35;4.32;;;19.40;63.80;;;;;;4999079;28;20152;-96
2021/10/07 12:49:52;;;;;;;5.50;4.30;;;19.40;64.10;;;;;;4999272;28;20188;-95
2021/10/07 12:52:28;;;;;;;10.15;7.20;;;19.30;64.20;;;;;;4999133;28;20260;-95
2021/10/07 12:55:04;;;;;;;9.02;6.75;;;19.20;64.50;;;;;;4981442;28;20172;-95
2021/10/07 12:57:33;;;;;;;14.07;7.20;;;19.20;64.80;;;;;;4982017;28;20202;-95
2021/10/07 12:59:59;;;;;;;7.93;6.25;;;19.30;64.70;;;;;;4981875;28;20215;-95
2021/10/07 13:02:33;;;;;;;14.30;8.47;;;19.40;65.20;;;;;;4964295;28;20184;-95
2021/10/07 13:05:25;;;;;;;8.88;7.95;;;19.50;64.90;;;;;;4981182;28;20392;-95
2021/10/07 13:07:54;;;;;;;9.93;5.88;;;19.60;64.90;;;;;;4997918;28;20184;-95
2021/10/07 13:10:21;;;;;;;12.23;6.45;;;19.70;63.70;;;;;;4964306;28;20168;-95
2021/10/07 13:12:47;;;;;;;12.82;6.43;;;19.70;61.40;;;;;;4978885;28;20223;-95
2021/10/07 13:15:13;;;;;;;10.10;7.50;;;19.80;61.80;;;;;;4979662;28;20188;-95
2021/10/07 13:17:39;;;;;;;11.52;7.45;;;19.90;61.70;;;;;;4979472;28;20243;-95
2021/10/07 13:20:06;;;;;;;11.00;8.17;;;19.80;61.40;;;;;;4979317;28;20191;-95
2021/10/07 13:22:32;;;;;;;9.57;6.45;;;19.80;61.80;;;;;;4979010;28;20442;-95
2021/10/07 13:24:58;;;;;;;13.80;8.20;;;19.80;62.10;;;;;;4979828;28;20172;-95
2021/10/07 13:27:24;;;;;;;6.80;5.90;;;19.90;63.00;;;;;;4979312;28;20249;-96
2021/10/07 13:29:52;;;;;;;11.80;5.70;;;20.00;61.80;;;;;;4979606;28;20179;-95
2021/10/07 13:32:20;;;;;;;9.38;6.35;;;20.10;62.30;;;;;;4978530;28;20443;-95
2021/10/07 13:34:48;;;;;;;9.85;7.20;;;20.40;61.30;;;;;;4978655;28;20183;-96
2021/10/07 13:37:15;;;;;;;9.93;6.80;;;20.20;60.20;;;;;;4963424;28;20187;-95
2021/10/07 13:39:42;;;;;;;9.93;6.63;;;20.50;60.10;;;;;;4979819;28;20215;-96
2021/10/07 13:42:11;;;;;;;8.73;6.57;;;20.50;59.20;;;;;;4980800;28;20411;-95
2021/10/07 13:44:37;;;;;;;6.27;5.00;;;20.80;59.50;;;;;;4980778;28;20431;-96
2021/10/07 13:47:03;;;;;;;8.53;5.93;;;20.80;57.50;;;;;;4980328;28;20447;-95
2021/10/07 13:49:29;;;;;;;4.90;4.50;;;20.90;57.20;;;;;;4978792;28;20199;-95
2021/10/07 13:51:55;;;;;;;6.67;5.50;;;21.00;57.50;;;;;;4976719;28;20487;-93
2021/10/07 13:54:32;;;;;;;10.50;5.50;;;21.20;57.90;;;;;;4972112;28;20443;-94
2021/10/07 13:57:04;;;;;;;5.63;4.23;;;21.30;58.70;;;;;;4973949;28;20206;-94
2021/10/07 13:59:30;;;;;;;15.23;4.87;;;21.50;57.90;;;;;;4957270;28;20431;-94
2021/10/07 14:01:58;;;;;;;6.97;4.43;;;21.60;56.90;;;;;;4973009;28;20414;-94
2021/10/07 14:04:24;;;;;;;6.00;4.17;;;21.70;57.60;;;;;;4972639;28;20485;-94
2021/10/07 14:06:50;;;;;;;7.77;4.77;;;21.80;57.70;;;;;;4974206;28;20447;-94
2021/10/07 14:09:16;;;;;;;7.40;4.30;;;21.80;57.50;;;;;;4971536;28;20423;-93
2021/10/07 14:11:42;;;;;;;7.30;4.47;;;21.80;57.30;;;;;;4973007;28;20196;-93
2021/10/07 14:14:10;;;;;;;12.10;5.07;;;21.80;57.20;;;;;;4979210;28;20498;-96
2021/10/07 14:16:36;;;;;;;6.93;4.17;;;21.70;57.00;;;;;;4977391;28;20180;-95
2021/10/07 14:19:03;;;;;;;10.93;4.80;;;21.70;57.30;;;;;;4980994;28;20515;-96
2021/10/07 14:21:44;;;;;;;9.10;4.27;;;21.70;57.10;;;;;;4980972;28;20427;-96
2021/10/07 14:28:04;;;;;;;7.73;5.40;;;21.60;55.60;;;;;;4903920;29;20427;-96
2021/10/07 14:30:33;;;;;;;7.85;4.60;;;21.30;56.70;;;;;;4951961;28;20456;-96
2021/10/07 14:32:58;;;;;;;7.30;4.57;;;21.20;56.70;;;;;;4981406;28;20227;-95
2021/10/07 14:35:33;;;;;;;8.30;3.97;;;21.20;56.40;;;;;;4983982;28;20443;-96
2021/10/07 14:37:58;;;;;;;10.25;4.20;;;21.00;57.90;;;;;;4983608;28;20434;-96
2021/10/07 14:40:32;;;;;;;7.27;4.00;;;20.90;58.80;;;;;;4983610;28;20187;-96
2021/10/07 14:42:58;;;;;;;5.75;3.70;;;21.00;58.20;;;;;;4982525;28;20223;-96
2021/10/07 14:45:24;;;;;;;7.00;3.53;;;20.80;56.80;;;;;;4982397;28;20187;-96
2021/10/07 14:47:49;;;;;;;7.70;3.97;;;20.80;57.00;;;;;;4983748;28;20203;-96
2021/10/07 14:50:17;;;;;;;7.20;4.33;;;20.70;57.10;;;;;;4983964;28;20202;-95
2021/10/07 14:52:43;;;;;;;7.43;3.35;;;20.60;57.60;;;;;;4983474;28;20477;-95
2021/10/07 14:55:12;;;;;;;4.60;3.65;;;20.50;58.40;;;;;;4983065;28;20184;-95
2021/10/07 15:00:45;;;;;;;8.13;3.90;;;20.30;58.10;;;;;;4990751;28;20168;-95
2021/10/07 15:03:11;;;;;;;10.27;4.82;;;20.10;58.60;;;;;;4983975;28;20192;-95
2021/10/07 15:05:37;;;;;;;5.90;4.70;;;20.00;59.60;;;;;;4983989;28;20203;-96
2021/10/07 15:08:29;;;;;;;6.78;4.25;;;19.90;60.40;;;;;;4968415;28;20196;-96
2021/10/07 15:10:55;;;;;;;8.55;4.05;;;19.80;60.80;;;;;;4984156;28;20162;-95
2021/10/07 15:13:26;;;;;;;6.07;4.17;;;19.60;61.10;;;;;;5001064;28;20245;-96
2021/10/07 15:15:55;;;;;;;7.72;4.50;;;19.50;61.90;;;;;;5184640;23;20239;-96
2021/10/07 15:21:36;;;;;;;11.10;4.80;;;19.30;62.50;;;;;;5214157;23;20223;-96
2021/10/07 15:26:37;;;;;;;4.57;4.18;;;19.20;62.90;;;;;;5105554;23;20239;-95
2021/10/07 15:29:03;;;;;;;6.18;4.60;;;19.10;62.80;;;;;;4982921;28;20196;-96
2021/10/07 15:31:43;;;;;;;8.55;4.57;;;19.00;63.40;;;;;;4983302;28;20191;-96
2021/10/07 15:34:09;;;;;;;10.75;4.30;;;18.90;63.80;;;;;;4982917;28;20242;-95